sensor_id;sensor_type;location;lat;lon;timestamp;P1;durP1;ratioP1;P2;durP2;ratioP2
84113;SDS011;74483;48.846;2.358;2024-03-07T00:02:13;1.77;;;1.55;;
84113;SDS011;74483;48.846;2.358;2024-03-07T00:04:38;2.08;;;1.60;;
84113;SDS011;74483;48.846;2.358;2024-03-07T00:07:04;1.70;;;1.30;;
84113;SDS011;74483;48.846;2.358;2024-03-07T00:09:34;1.60;;;1.50;;
84113;SDS011;74483;48.846;2.358;2024-03-07T00:12:00;1.75;;;1.40;;
84113;SDS011;74483;48.846;2.358;2024-03-07T00:14:26;2.28;;;1.50;;
84113;SDS011;74483;48.846;2.358;2024-03-07T00:16:55;1.52;;;1.42;;
84113;SDS011;74483;48.846;2.358;2024-03-07T00:19:22;1.50;;;1.40;;
84113;SDS011;74483;48.846;2.358;2024-03-07T00:21:50;2.13;;;1.60;;
84113;SDS011;74483;48.846;2.358;2024-03-07T00:24:16;1.85;;;1.50;;
84113;SDS011;74483;48.846;2.358;2024-03-07T00:26:42;2.42;;;1.60;;
84113;SDS011;74483;48.846;2.358;2024-03-07T00:29:08;2.50;;;1.75;;
84113;SDS011;74483;48.846;2.358;2024-03-07T00:31:33;1.98;;;1.63;;
84113;SDS011;74483;48.846;2.358;2024-03-07T00:33:59;1.70;;;1.50;;
84113;SDS011;74483;48.846;2.358;2024-03-07T00:36:25;2.13;;;1.60;;
84113;SDS011;74483;48.846;2.358;2024-03-07T00:38:51;1.60;;;1.48;;
84113;SDS011;74483;48.846;2.358;2024-03-07T00:41:17;1.95;;;1.52;;
84113;SDS011;74483;48.846;2.358;2024-03-07T00:43:44;1.70;;;1.60;;
84113;SDS011;74483;48.846;2.358;2024-03-07T00:46:10;1.98;;;1.60;;
84113;SDS011;74483;48.846;2.358;2024-03-07T00:48:36;2.83;;;1.75;;
84113;SDS011;74483;48.846;2.358;2024-03-07T00:51:02;2.08;;;1.48;;
84113;SDS011;74483;48.846;2.358;2024-03-07T00:53:29;2.33;;;1.70;;
84113;SDS011;74483;48.846;2.358;2024-03-07T00:55:55;1.73;;;1.63;;
84113;SDS011;74483;48.846;2.358;2024-03-07T00:58:21;2.03;;;1.67;;
84113;SDS011;74483;48.846;2.358;2024-03-07T01:00:46;1.70;;;1.40;;
84113;SDS011;74483;48.846;2.358;2024-03-07T01:03:12;1.60;;;1.50;;
84113;SDS011;74483;48.846;2.358;2024-03-07T01:05:39;1.90;;;1.70;;
84113;SDS011;74483;48.846;2.358;2024-03-07T01:08:05;1.73;;;1.42;;
84113;SDS011;74483;48.846;2.358;2024-03-07T01:10:31;1.80;;;1.70;;
84113;SDS011;74483;48.846;2.358;2024-03-07T01:12:56;1.65;;;1.30;;
84113;SDS011;74483;48.846;2.358;2024-03-07T01:15:26;1.85;;;1.70;;
84113;SDS011;74483;48.846;2.358;2024-03-07T01:17:52;1.60;;;1.50;;
84113;SDS011;74483;48.846;2.358;2024-03-07T01:20:17;1.73;;;1.58;;
84113;SDS011;74483;48.846;2.358;2024-03-07T01:22:43;1.77;;;1.55;;
84113;SDS011;74483;48.846;2.358;2024-03-07T01:25:09;1.85;;;1.50;;
84113;SDS011;74483;48.846;2.358;2024-03-07T01:27:35;1.75;;;1.60;;
84113;SDS011;74483;48.846;2.358;2024-03-07T01:30:00;2.30;;;1.65;;
84113;SDS011;74483;48.846;2.358;2024-03-07T01:32:27;2.20;;;1.52;;
84113;SDS011;74483;48.846;2.358;2024-03-07T01:34:53;2.13;;;1.50;;
84113;SDS011;74483;48.846;2.358;2024-03-07T01:37:19;2.15;;;1.70;;
84113;SDS011;74483;48.846;2.358;2024-03-07T01:39:45;1.80;;;1.48;;
84113;SDS011;74483;48.846;2.358;2024-03-07T01:42:11;1.60;;;1.45;;
84113;SDS011;74483;48.846;2.358;2024-03-07T01:44:37;2.42;;;1.65;;
84113;SDS011;74483;48.846;2.358;2024-03-07T01:47:05;1.48;;;1.30;;
84113;SDS011;74483;48.846;2.358;2024-03-07T01:49:31;1.65;;;1.50;;
84113;SDS011;74483;48.846;2.358;2024-03-07T01:51:57;1.98;;;1.50;;
84113;SDS011;74483;48.846;2.358;2024-03-07T01:54:23;2.00;;;1.50;;
84113;SDS011;74483;48.846;2.358;2024-03-07T01:56:50;1.50;;;1.40;;
84113;SDS011;74483;48.846;2.358;2024-03-07T01:59:16;2.33;;;1.85;;
84113;SDS011;74483;48.846;2.358;2024-03-07T02:01:45;1.65;;;1.50;;
84113;SDS011;74483;48.846;2.358;2024-03-07T02:04:12;1.75;;;1.50;;
84113;SDS011;74483;48.846;2.358;2024-03-07T02:06:39;1.77;;;1.58;;
84113;SDS011;74483;48.846;2.358;2024-03-07T02:09:05;2.15;;;1.60;;
84113;SDS011;74483;48.846;2.358;2024-03-07T02:11:32;1.67;;;1.50;;
84113;SDS011;74483;48.846;2.358;2024-03-07T02:13:57;1.67;;;1.58;;
84113;SDS011;74483;48.846;2.358;2024-03-07T02:16:23;1.65;;;1.52;;
84113;SDS011;74483;48.846;2.358;2024-03-07T02:18:48;1.75;;;1.65;;
84113;SDS011;74483;48.846;2.358;2024-03-07T02:21:15;1.90;;;1.70;;
84113;SDS011;74483;48.846;2.358;2024-03-07T02:23:41;1.85;;;1.60;;
84113;SDS011;74483;48.846;2.358;2024-03-07T02:26:07;2.17;;;1.70;;
84113;SDS011;74483;48.846;2.358;2024-03-07T02:28:33;1.70;;;1.60;;
84113;SDS011;74483;48.846;2.358;2024-03-07T02:31:02;1.88;;;1.60;;
84113;SDS011;74483;48.846;2.358;2024-03-07T02:33:27;1.92;;;1.60;;
84113;SDS011;74483;48.846;2.358;2024-03-07T02:35:53;2.17;;;1.70;;
84113;SDS011;74483;48.846;2.358;2024-03-07T02:38:18;2.17;;;1.73;;
84113;SDS011;74483;48.846;2.358;2024-03-07T02:40:44;1.58;;;1.48;;
84113;SDS011;74483;48.846;2.358;2024-03-07T02:43:13;2.30;;;1.60;;
84113;SDS011;74483;48.846;2.358;2024-03-07T02:45:39;1.60;;;1.45;;
84113;SDS011;74483;48.846;2.358;2024-03-07T02:48:05;1.63;;;1.50;;
84113;SDS011;74483;48.846;2.358;2024-03-07T02:50:34;2.08;;;1.58;;
84113;SDS011;74483;48.846;2.358;2024-03-07T02:53:02;1.60;;;1.45;;
84113;SDS011;74483;48.846;2.358;2024-03-07T02:55:32;3.10;;;1.70;;
84113;SDS011;74483;48.846;2.358;2024-03-07T02:57:57;1.70;;;1.50;;
84113;SDS011;74483;48.846;2.358;2024-03-07T03:00:24;1.90;;;1.60;;
84113;SDS011;74483;48.846;2.358;2024-03-07T03:02:54;1.80;;;1.60;;
84113;SDS011;74483;48.846;2.358;2024-03-07T03:05:20;1.75;;;1.50;;
84113;SDS011;74483;48.846;2.358;2024-03-07T03:07:47;2.15;;;1.52;;
84113;SDS011;74483;48.846;2.358;2024-03-07T03:10:22;1.80;;;1.58;;
84113;SDS011;74483;48.846;2.358;2024-03-07T03:12:54;1.70;;;1.50;;
84113;SDS011;74483;48.846;2.358;2024-03-07T03:15:22;1.73;;;1.33;;
84113;SDS011;74483;48.846;2.358;2024-03-07T03:17:48;1.85;;;1.65;;
84113;SDS011;74483;48.846;2.358;2024-03-07T03:20:14;2.13;;;1.73;;
84113;SDS011;74483;48.846;2.358;2024-03-07T03:22:49;2.30;;;1.55;;
84113;SDS011;74483;48.846;2.358;2024-03-07T03:25:18;1.70;;;1.50;;
84113;SDS011;74483;48.846;2.358;2024-03-07T03:27:45;2.60;;;1.92;;
84113;SDS011;74483;48.846;2.358;2024-03-07T03:30:12;2.63;;;1.67;;
84113;SDS011;74483;48.846;2.358;2024-03-07T03:32:42;1.58;;;1.40;;
84113;SDS011;74483;48.846;2.358;2024-03-07T03:35:08;1.80;;;1.50;;
84113;SDS011;74483;48.846;2.358;2024-03-07T03:37:44;1.63;;;1.52;;
84113;SDS011;74483;48.846;2.358;2024-03-07T03:40:10;1.88;;;1.67;;
84113;SDS011;74483;48.846;2.358;2024-03-07T03:42:40;2.05;;;1.70;;
84113;SDS011;74483;48.846;2.358;2024-03-07T03:45:07;1.55;;;1.45;;
84113;SDS011;74483;48.846;2.358;2024-03-07T03:47:34;1.73;;;1.52;;
84113;SDS011;74483;48.846;2.358;2024-03-07T03:50:07;2.67;;;1.42;;
84113;SDS011;74483;48.846;2.358;2024-03-07T03:52:34;1.77;;;1.58;;
84113;SDS011;74483;48.846;2.358;2024-03-07T03:55:03;1.45;;;1.30;;
84113;SDS011;74483;48.846;2.358;2024-03-07T03:57:30;2.03;;;1.48;;
84113;SDS011;74483;48.846;2.358;2024-03-07T03:59:57;1.63;;;1.45;;
84113;SDS011;74483;48.846;2.358;2024-03-07T04:02:23;1.50;;;1.38;;
84113;SDS011;74483;48.846;2.358;2024-03-07T04:04:49;1.60;;;1.50;;
84113;SDS011;74483;48.846;2.358;2024-03-07T04:07:16;1.70;;;1.60;;
84113;SDS011;74483;48.846;2.358;2024-03-07T04:09:42;1.60;;;1.48;;
84113;SDS011;74483;48.846;2.358;2024-03-07T04:12:09;1.67;;;1.50;;
84113;SDS011;74483;48.846;2.358;2024-03-07T04:14:44;2.75;;;1.60;;
84113;SDS011;74483;48.846;2.358;2024-03-07T04:17:10;1.98;;;1.58;;
84113;SDS011;74483;48.846;2.358;2024-03-07T04:19:41;1.75;;;1.38;;
84113;SDS011;74483;48.846;2.358;2024-03-07T04:22:08;1.50;;;1.40;;
84113;SDS011;74483;48.846;2.358;2024-03-07T04:24:37;1.63;;;1.40;;
84113;SDS011;74483;48.846;2.358;2024-03-07T04:27:03;2.40;;;1.50;;
84113;SDS011;74483;48.846;2.358;2024-03-07T04:29:33;2.08;;;1.40;;
84113;SDS011;74483;48.846;2.358;2024-03-07T04:31:59;1.55;;;1.45;;
84113;SDS011;74483;48.846;2.358;2024-03-07T04:34:28;1.50;;;1.40;;
84113;SDS011;74483;48.846;2.358;2024-03-07T04:36:56;1.45;;;1.27;;
84113;SDS011;74483;48.846;2.358;2024-03-07T04:39:23;1.88;;;1.60;;
84113;SDS011;74483;48.846;2.358;2024-03-07T04:41:53;1.73;;;1.42;;
84113;SDS011;74483;48.846;2.358;2024-03-07T04:44:19;1.77;;;1.38;;
84113;SDS011;74483;48.846;2.358;2024-03-07T04:46:47;1.95;;;1.60;;
84113;SDS011;74483;48.846;2.358;2024-03-07T04:49:14;1.67;;;1.48;;
84113;SDS011;74483;48.846;2.358;2024-03-07T04:51:41;1.52;;;1.30;;
84113;SDS011;74483;48.846;2.358;2024-03-07T04:54:06;2.88;;;1.30;;
84113;SDS011;74483;48.846;2.358;2024-03-07T04:56:32;1.63;;;1.52;;
84113;SDS011;74483;48.846;2.358;2024-03-07T04:58:57;2.00;;;1.45;;
84113;SDS011;74483;48.846;2.358;2024-03-07T05:01:23;1.67;;;1.58;;
84113;SDS011;74483;48.846;2.358;2024-03-07T05:03:50;1.40;;;1.30;;
84113;SDS011;74483;48.846;2.358;2024-03-07T05:06:17;1.42;;;1.27;;
84113;SDS011;74483;48.846;2.358;2024-03-07T05:08:42;1.40;;;1.30;;
84113;SDS011;74483;48.846;2.358;2024-03-07T05:11:08;1.40;;;1.30;;
84113;SDS011;74483;48.846;2.358;2024-03-07T05:13:33;1.40;;;1.30;;
84113;SDS011;74483;48.846;2.358;2024-03-07T05:16:00;1.60;;;1.40;;
84113;SDS011;74483;48.846;2.358;2024-03-07T05:18:26;1.50;;;1.30;;
84113;SDS011;74483;48.846;2.358;2024-03-07T05:20:51;1.85;;;1.33;;
84113;SDS011;74483;48.846;2.358;2024-03-07T05:23:19;1.35;;;1.20;;
84113;SDS011;74483;48.846;2.358;2024-03-07T05:25:45;1.88;;;1.40;;
84113;SDS011;74483;48.846;2.358;2024-03-07T05:28:11;1.83;;;1.55;;
84113;SDS011;74483;48.846;2.358;2024-03-07T05:30:37;2.05;;;1.35;;
84113;SDS011;74483;48.846;2.358;2024-03-07T05:33:02;2.17;;;1.63;;
84113;SDS011;74483;48.846;2.358;2024-03-07T05:35:29;1.60;;;1.30;;
84113;SDS011;74483;48.846;2.358;2024-03-07T05:37:55;1.70;;;1.48;;
84113;SDS011;74483;48.846;2.358;2024-03-07T05:40:21;1.50;;;1.40;;
84113;SDS011;74483;48.846;2.358;2024-03-07T05:42:48;1.40;;;1.30;;
84113;SDS011;74483;48.846;2.358;2024-03-07T05:45:14;2.17;;;1.70;;
84113;SDS011;74483;48.846;2.358;2024-03-07T05:47:40;1.52;;;1.38;;
84113;SDS011;74483;48.846;2.358;2024-03-07T05:50:06;2.03;;;1.30;;
84113;SDS011;74483;48.846;2.358;2024-03-07T05:52:35;2.90;;;1.40;;
84113;SDS011;74483;48.846;2.358;2024-03-07T05:55:01;1.58;;;1.23;;
84113;SDS011;74483;48.846;2.358;2024-03-07T05:57:28;1.73;;;1.27;;
84113;SDS011;74483;48.846;2.358;2024-03-07T05:59:53;2.45;;;1.27;;
84113;SDS011;74483;48.846;2.358;2024-03-07T06:02:19;2.10;;;1.50;;
84113;SDS011;74483;48.846;2.358;2024-03-07T06:04:45;1.50;;;1.25;;
84113;SDS011;74483;48.846;2.358;2024-03-07T06:07:11;1.27;;;1.17;;
84113;SDS011;74483;48.846;2.358;2024-03-07T06:09:37;2.45;;;1.50;;
84113;SDS011;74483;48.846;2.358;2024-03-07T06:12:03;1.40;;;1.30;;
84113;SDS011;74483;48.846;2.358;2024-03-07T06:14:29;1.63;;;1.30;;
84113;SDS011;74483;48.846;2.358;2024-03-07T06:16:55;1.60;;;1.38;;
84113;SDS011;74483;48.846;2.358;2024-03-07T06:19:23;1.75;;;1.35;;
84113;SDS011;74483;48.846;2.358;2024-03-07T06:21:48;2.85;;;1.40;;
84113;SDS011;74483;48.846;2.358;2024-03-07T06:24:14;1.65;;;1.15;;
84113;SDS011;74483;48.846;2.358;2024-03-07T06:26:42;1.58;;;1.10;;
84113;SDS011;74483;48.846;2.358;2024-03-07T06:29:16;2.42;;;1.50;;
84113;SDS011;74483;48.846;2.358;2024-03-07T06:31:42;1.63;;;1.38;;
84113;SDS011;74483;48.846;2.358;2024-03-07T06:34:11;1.70;;;1.40;;
84113;SDS011;74483;48.846;2.358;2024-03-07T06:36:38;1.60;;;1.45;;
84113;SDS011;74483;48.846;2.358;2024-03-07T06:39:03;1.30;;;1.10;;
84113;SDS011;74483;48.846;2.358;2024-03-07T06:41:35;2.03;;;1.40;;
84113;SDS011;74483;48.846;2.358;2024-03-07T06:44:02;1.85;;;1.40;;
84113;SDS011;74483;48.846;2.358;2024-03-07T06:46:28;2.42;;;1.40;;
84113;SDS011;74483;48.846;2.358;2024-03-07T06:48:54;1.35;;;1.25;;
84113;SDS011;74483;48.846;2.358;2024-03-07T06:51:20;1.90;;;1.40;;
84113;SDS011;74483;48.846;2.358;2024-03-07T06:53:47;1.70;;;1.30;;
84113;SDS011;74483;48.846;2.358;2024-03-07T06:56:13;2.20;;;1.30;;
84113;SDS011;74483;48.846;2.358;2024-03-07T06:58:39;2.00;;;1.10;;
84113;SDS011;74483;48.846;2.358;2024-03-07T07:01:05;1.85;;;1.30;;
84113;SDS011;74483;48.846;2.358;2024-03-07T07:03:34;1.40;;;1.23;;
84113;SDS011;74483;48.846;2.358;2024-03-07T07:06:01;1.50;;;1.30;;
84113;SDS011;74483;48.846;2.358;2024-03-07T07:08:27;2.00;;;1.30;;
84113;SDS011;74483;48.846;2.358;2024-03-07T07:10:54;1.95;;;1.20;;
84113;SDS011;74483;48.846;2.358;2024-03-07T07:13:21;1.50;;;1.40;;
84113;SDS011;74483;48.846;2.358;2024-03-07T07:15:47;1.88;;;1.30;;
84113;SDS011;74483;48.846;2.358;2024-03-07T07:18:14;1.70;;;1.27;;
84113;SDS011;74483;48.846;2.358;2024-03-07T07:20:40;1.45;;;1.20;;
84113;SDS011;74483;48.846;2.358;2024-03-07T07:23:06;1.52;;;1.40;;
84113;SDS011;74483;48.846;2.358;2024-03-07T07:25:31;1.75;;;1.20;;
84113;SDS011;74483;48.846;2.358;2024-03-07T07:27:57;2.35;;;1.50;;
84113;SDS011;74483;48.846;2.358;2024-03-07T07:30:23;1.50;;;1.35;;
84113;SDS011;74483;48.846;2.358;2024-03-07T07:32:50;1.55;;;1.20;;
84113;SDS011;74483;48.846;2.358;2024-03-07T07:35:16;1.40;;;1.20;;
84113;SDS011;74483;48.846;2.358;2024-03-07T07:37:43;2.47;;;1.20;;
84113;SDS011;74483;48.846;2.358;2024-03-07T07:40:10;1.63;;;1.13;;
84113;SDS011;74483;48.846;2.358;2024-03-07T07:42:43;1.52;;;1.20;;
84113;SDS011;74483;48.846;2.358;2024-03-07T07:45:13;1.88;;;1.40;;
84113;SDS011;74483;48.846;2.358;2024-03-07T07:47:40;1.67;;;1.35;;
84113;SDS011;74483;48.846;2.358;2024-03-07T07:50:10;2.35;;;1.52;;
84113;SDS011;74483;48.846;2.358;2024-03-07T07:52:47;2.00;;;1.20;;
84113;SDS011;74483;48.846;2.358;2024-03-07T07:55:18;2.80;;;1.42;;
84113;SDS011;74483;48.846;2.358;2024-03-07T07:57:45;1.80;;;1.30;;
84113;SDS011;74483;48.846;2.358;2024-03-07T08:00:12;2.17;;;1.15;;
84113;SDS011;74483;48.846;2.358;2024-03-07T08:05:26;1.98;;;1.50;;
84113;SDS011;74483;48.846;2.358;2024-03-07T08:07:54;2.10;;;1.40;;
84113;SDS011;74483;48.846;2.358;2024-03-07T08:10:26;2.17;;;1.58;;
84113;SDS011;74483;48.846;2.358;2024-03-07T08:12:58;2.55;;;1.35;;
84113;SDS011;74483;48.846;2.358;2024-03-07T08:15:25;2.15;;;1.23;;
84113;SDS011;74483;48.846;2.358;2024-03-07T08:17:53;1.42;;;1.13;;
84113;SDS011;74483;48.846;2.358;2024-03-07T08:20:20;1.88;;;1.50;;
84113;SDS011;74483;48.846;2.358;2024-03-07T08:22:47;1.60;;;1.10;;
84113;SDS011;74483;48.846;2.358;2024-03-07T08:25:16;1.55;;;1.30;;
84113;SDS011;74483;48.846;2.358;2024-03-07T08:27:44;1.85;;;1.23;;
84113;SDS011;74483;48.846;2.358;2024-03-07T08:30:14;1.95;;;1.27;;
84113;SDS011;74483;48.846;2.358;2024-03-07T08:32:40;1.40;;;1.10;;
84113;SDS011;74483;48.846;2.358;2024-03-07T08:35:07;1.42;;;1.23;;
84113;SDS011;74483;48.846;2.358;2024-03-07T08:37:37;1.52;;;1.20;;
84113;SDS011;74483;48.846;2.358;2024-03-07T08:40:07;1.50;;;1.13;;
84113;SDS011;74483;48.846;2.358;2024-03-07T08:42:35;1.80;;;1.40;;
84113;SDS011;74483;48.846;2.358;2024-03-07T08:45:07;1.42;;;1.20;;
84113;SDS011;74483;48.846;2.358;2024-03-07T08:47:35;2.53;;;1.23;;
84113;SDS011;74483;48.846;2.358;2024-03-07T08:50:02;1.60;;;1.30;;
84113;SDS011;74483;48.846;2.358;2024-03-07T08:52:33;1.83;;;1.20;;
84113;SDS011;74483;48.846;2.358;2024-03-07T08:55:03;2.60;;;1.35;;
84113;SDS011;74483;48.846;2.358;2024-03-07T08:57:29;2.10;;;1.15;;
84113;SDS011;74483;48.846;2.358;2024-03-07T08:59:55;1.95;;;1.40;;
84113;SDS011;74483;48.846;2.358;2024-03-07T09:02:21;1.27;;;1.17;;
84113;SDS011;74483;48.846;2.358;2024-03-07T09:04:46;2.20;;;1.15;;
84113;SDS011;74483;48.846;2.358;2024-03-07T09:07:12;1.20;;;1.10;;
84113;SDS011;74483;48.846;2.358;2024-03-07T09:09:42;2.70;;;1.30;;
84113;SDS011;74483;48.846;2.358;2024-03-07T09:12:08;1.88;;;1.15;;
84113;SDS011;74483;48.846;2.358;2024-03-07T09:14:34;1.77;;;1.20;;
84113;SDS011;74483;48.846;2.358;2024-03-07T09:17:00;2.50;;;1.40;;
84113;SDS011;74483;48.846;2.358;2024-03-07T09:19:26;1.63;;;1.30;;
84113;SDS011;74483;48.846;2.358;2024-03-07T09:21:53;2.35;;;1.20;;
84113;SDS011;74483;48.846;2.358;2024-03-07T09:24:19;1.75;;;1.20;;
84113;SDS011;74483;48.846;2.358;2024-03-07T09:26:49;1.60;;;1.20;;
84113;SDS011;74483;48.846;2.358;2024-03-07T09:29:16;1.65;;;1.17;;
84113;SDS011;74483;48.846;2.358;2024-03-07T09:31:43;1.92;;;1.30;;
84113;SDS011;74483;48.846;2.358;2024-03-07T09:34:12;2.05;;;1.23;;
84113;SDS011;74483;48.846;2.358;2024-03-07T09:36:41;2.65;;;1.42;;
84113;SDS011;74483;48.846;2.358;2024-03-07T09:39:07;1.92;;;1.27;;
84113;SDS011;74483;48.846;2.358;2024-03-07T09:41:34;1.98;;;1.10;;
84113;SDS011;74483;48.846;2.358;2024-03-07T09:43:59;2.38;;;1.15;;
84113;SDS011;74483;48.846;2.358;2024-03-07T09:46:26;2.38;;;1.20;;
84113;SDS011;74483;48.846;2.358;2024-03-07T09:48:52;2.15;;;1.10;;
84113;SDS011;74483;48.846;2.358;2024-03-07T09:51:19;1.90;;;1.10;;
84113;SDS011;74483;48.846;2.358;2024-03-07T09:53:49;1.52;;;1.20;;
84113;SDS011;74483;48.846;2.358;2024-03-07T09:56:22;1.92;;;1.10;;
84113;SDS011;74483;48.846;2.358;2024-03-07T09:58:51;1.95;;;1.38;;
84113;SDS011;74483;48.846;2.358;2024-03-07T10:01:21;2.05;;;1.20;;
84113;SDS011;74483;48.846;2.358;2024-03-07T10:03:47;2.22;;;1.15;;
84113;SDS011;74483;48.846;2.358;2024-03-07T10:06:14;1.10;;;1.00;;
84113;SDS011;74483;48.846;2.358;2024-03-07T10:08:41;1.35;;;1.20;;
84113;SDS011;74483;48.846;2.358;2024-03-07T10:11:07;1.35;;;1.10;;
84113;SDS011;74483;48.846;2.358;2024-03-07T10:13:35;1.48;;;1.15;;
84113;SDS011;74483;48.846;2.358;2024-03-07T10:16:01;1.98;;;1.00;;
84113;SDS011;74483;48.846;2.358;2024-03-07T10:18:27;1.33;;;1.10;;
84113;SDS011;74483;48.846;2.358;2024-03-07T10:20:54;1.92;;;1.10;;
84113;SDS011;74483;48.846;2.358;2024-03-07T10:23:20;1.08;;;0.93;;
84113;SDS011;74483;48.846;2.358;2024-03-07T10:25:47;1.10;;;1.00;;
84113;SDS011;74483;48.846;2.358;2024-03-07T10:28:13;3.45;;;1.20;;
84113;SDS011;74483;48.846;2.358;2024-03-07T10:30:41;1.83;;;1.27;;
84113;SDS011;74483;48.846;2.358;2024-03-07T10:33:09;1.73;;;1.20;;
84113;SDS011;74483;48.846;2.358;2024-03-07T10:35:37;1.45;;;1.00;;
84113;SDS011;74483;48.846;2.358;2024-03-07T10:38:03;1.45;;;1.30;;
84113;SDS011;74483;48.846;2.358;2024-03-07T10:40:32;1.35;;;1.10;;
84113;SDS011;74483;48.846;2.358;2024-03-07T10:43:00;1.23;;;1.02;;
84113;SDS011;74483;48.846;2.358;2024-03-07T10:45:34;1.45;;;1.20;;
84113;SDS011;74483;48.846;2.358;2024-03-07T10:48:09;1.25;;;1.00;;
84113;SDS011;74483;48.846;2.358;2024-03-07T10:59:37;1.33;;;1.10;;
84113;SDS011;74483;48.846;2.358;2024-03-07T11:04:49;1.58;;;1.10;;
84113;SDS011;74483;48.846;2.358;2024-03-07T11:07:16;2.00;;;1.13;;
84113;SDS011;74483;48.846;2.358;2024-03-07T11:09:45;1.25;;;1.15;;
84113;SDS011;74483;48.846;2.358;2024-03-07T11:12:13;1.10;;;1.00;;
84113;SDS011;74483;48.846;2.358;2024-03-07T11:14:41;1.23;;;1.05;;
84113;SDS011;74483;48.846;2.358;2024-03-07T11:17:09;1.35;;;1.00;;
84113;SDS011;74483;48.846;2.358;2024-03-07T11:19:38;1.23;;;1.10;;
84113;SDS011;74483;48.846;2.358;2024-03-07T11:22:04;1.13;;;1.00;;
84113;SDS011;74483;48.846;2.358;2024-03-07T11:24:42;1.20;;;1.10;;
84113;SDS011;74483;48.846;2.358;2024-03-07T11:27:09;1.55;;;1.10;;
84113;SDS011;74483;48.846;2.358;2024-03-07T11:32:08;1.25;;;1.10;;
84113;SDS011;74483;48.846;2.358;2024-03-07T11:34:37;1.23;;;1.13;;
84113;SDS011;74483;48.846;2.358;2024-03-07T11:37:06;1.88;;;1.20;;
84113;SDS011;74483;48.846;2.358;2024-03-07T11:39:39;1.05;;;0.95;;
84113;SDS011;74483;48.846;2.358;2024-03-07T11:42:18;2.22;;;1.38;;
84113;SDS011;74483;48.846;2.358;2024-03-07T11:44:45;1.60;;;1.23;;
84113;SDS011;74483;48.846;2.358;2024-03-07T11:47:12;1.25;;;1.15;;
84113;SDS011;74483;48.846;2.358;2024-03-07T11:49:37;1.90;;;1.40;;
84113;SDS011;74483;48.846;2.358;2024-03-07T11:52:03;1.80;;;1.33;;
84113;SDS011;74483;48.846;2.358;2024-03-07T11:54:36;1.55;;;1.20;;
84113;SDS011;74483;48.846;2.358;2024-03-07T11:57:05;2.05;;;1.58;;
84113;SDS011;74483;48.846;2.358;2024-03-07T11:59:38;1.70;;;1.27;;
84113;SDS011;74483;48.846;2.358;2024-03-07T12:02:13;2.05;;;1.33;;
84113;SDS011;74483;48.846;2.358;2024-03-07T12:04:40;4.30;;;1.60;;
84113;SDS011;74483;48.846;2.358;2024-03-07T12:07:06;2.45;;;1.42;;
84113;SDS011;74483;48.846;2.358;2024-03-07T12:09:35;2.85;;;1.30;;
84113;SDS011;74483;48.846;2.358;2024-03-07T12:12:02;2.03;;;1.52;;
84113;SDS011;74483;48.846;2.358;2024-03-07T12:14:29;3.67;;;1.52;;
84113;SDS011;74483;48.846;2.358;2024-03-07T12:16:55;1.63;;;1.50;;
84113;SDS011;74483;48.846;2.358;2024-03-07T12:19:22;2.13;;;1.52;;
84113;SDS011;74483;48.846;2.358;2024-03-07T12:21:50;2.83;;;1.90;;
84113;SDS011;74483;48.846;2.358;2024-03-07T12:24:16;3.10;;;1.85;;
84113;SDS011;74483;48.846;2.358;2024-03-07T12:26:41;2.33;;;1.95;;
84113;SDS011;74483;48.846;2.358;2024-03-07T12:29:10;2.80;;;1.83;;
84113;SDS011;74483;48.846;2.358;2024-03-07T12:31:39;2.42;;;1.65;;
84113;SDS011;74483;48.846;2.358;2024-03-07T12:34:06;1.92;;;1.73;;
84113;SDS011;74483;48.846;2.358;2024-03-07T12:36:35;2.45;;;1.90;;
84113;SDS011;74483;48.846;2.358;2024-03-07T12:39:25;2.00;;;1.80;;
84113;SDS011;74483;48.846;2.358;2024-03-07T12:41:55;2.85;;;1.98;;
84113;SDS011;74483;48.846;2.358;2024-03-07T12:44:21;2.20;;;2.00;;
84113;SDS011;74483;48.846;2.358;2024-03-07T12:46:53;2.10;;;1.60;;
84113;SDS011;74483;48.846;2.358;2024-03-07T12:49:21;2.42;;;1.90;;
84113;SDS011;74483;48.846;2.358;2024-03-07T12:51:52;2.15;;;1.92;;
84113;SDS011;74483;48.846;2.358;2024-03-07T12:54:21;2.10;;;1.95;;
84113;SDS011;74483;48.846;2.358;2024-03-07T12:56:47;2.20;;;1.98;;
84113;SDS011;74483;48.846;2.358;2024-03-07T12:59:15;2.90;;;2.10;;
84113;SDS011;74483;48.846;2.358;2024-03-07T13:01:41;3.63;;;2.10;;
84113;SDS011;74483;48.846;2.358;2024-03-07T13:04:10;3.45;;;2.22;;
84113;SDS011;74483;48.846;2.358;2024-03-07T13:06:36;2.55;;;2.00;;
84113;SDS011;74483;48.846;2.358;2024-03-07T13:09:02;2.42;;;2.22;;
84113;SDS011;74483;48.846;2.358;2024-03-07T13:11:28;2.10;;;1.90;;
84113;SDS011;74483;48.846;2.358;2024-03-07T13:13:57;2.40;;;2.10;;
84113;SDS011;74483;48.846;2.358;2024-03-07T13:16:23;2.45;;;2.13;;
84113;SDS011;74483;48.846;2.358;2024-03-07T13:18:53;2.10;;;1.90;;
84113;SDS011;74483;48.846;2.358;2024-03-07T13:21:21;2.72;;;2.05;;
84113;SDS011;74483;48.846;2.358;2024-03-07T13:23:47;2.38;;;2.08;;
84113;SDS011;74483;48.846;2.358;2024-03-07T13:26:13;1.88;;;1.70;;
84113;SDS011;74483;48.846;2.358;2024-03-07T13:28:50;2.00;;;1.80;;
84113;SDS011;74483;48.846;2.358;2024-03-07T13:31:18;2.95;;;1.92;;
84113;SDS011;74483;48.846;2.358;2024-03-07T13:33:45;3.40;;;2.03;;
84113;SDS011;74483;48.846;2.358;2024-03-07T13:36:11;3.45;;;2.38;;
84113;SDS011;74483;48.846;2.358;2024-03-07T13:38:39;5.15;;;2.75;;
84113;SDS011;74483;48.846;2.358;2024-03-07T13:41:05;2.97;;;2.55;;
84113;SDS011;74483;48.846;2.358;2024-03-07T13:43:31;3.60;;;2.53;;
84113;SDS011;74483;48.846;2.358;2024-03-07T13:46:00;3.83;;;2.80;;
84113;SDS011;74483;48.846;2.358;2024-03-07T13:48:25;4.25;;;3.30;;
84113;SDS011;74483;48.846;2.358;2024-03-07T13:50:51;5.22;;;2.92;;
84113;SDS011;74483;48.846;2.358;2024-03-07T13:53:18;3.88;;;3.25;;
84113;SDS011;74483;48.846;2.358;2024-03-07T13:58:43;4.43;;;3.00;;
84113;SDS011;74483;48.846;2.358;2024-03-07T14:04:32;5.70;;;3.38;;
84113;SDS011;74483;48.846;2.358;2024-03-07T14:12:25;5.45;;;3.25;;
84113;SDS011;74483;48.846;2.358;2024-03-07T14:15:12;8.52;;;3.40;;
84113;SDS011;74483;48.846;2.358;2024-03-07T14:32:59;7.22;;;3.47;;
84113;SDS011;74483;48.846;2.358;2024-03-07T14:35:34;5.88;;;3.15;;
84113;SDS011;74483;48.846;2.358;2024-03-07T14:40:38;5.00;;;3.08;;
84113;SDS011;74483;48.846;2.358;2024-03-07T14:43:04;5.60;;;3.03;;
84113;SDS011;74483;48.846;2.358;2024-03-07T14:45:35;5.07;;;3.40;;
84113;SDS011;74483;48.846;2.358;2024-03-07T14:48:04;5.65;;;3.47;;
84113;SDS011;74483;48.846;2.358;2024-03-07T14:50:33;3.92;;;2.83;;
84113;SDS011;74483;48.846;2.358;2024-03-07T14:52:59;5.70;;;3.65;;
84113;SDS011;74483;48.846;2.358;2024-03-07T14:55:25;4.15;;;3.15;;
84113;SDS011;74483;48.846;2.358;2024-03-07T14:57:51;4.85;;;3.30;;
84113;SDS011;74483;48.846;2.358;2024-03-07T15:00:16;6.00;;;2.95;;
84113;SDS011;74483;48.846;2.358;2024-03-07T15:02:51;4.88;;;3.00;;
84113;SDS011;74483;48.846;2.358;2024-03-07T15:05:17;3.67;;;2.95;;
84113;SDS011;74483;48.846;2.358;2024-03-07T15:07:45;4.07;;;2.90;;
84113;SDS011;74483;48.846;2.358;2024-03-07T15:10:18;5.40;;;3.10;;
84113;SDS011;74483;48.846;2.358;2024-03-07T15:12:51;4.88;;;2.90;;
84113;SDS011;74483;48.846;2.358;2024-03-07T15:15:18;5.35;;;3.20;;
84113;SDS011;74483;48.846;2.358;2024-03-07T15:17:44;6.97;;;3.20;;
84113;SDS011;74483;48.846;2.358;2024-03-07T15:20:11;5.63;;;3.08;;
84113;SDS011;74483;48.846;2.358;2024-03-07T15:22:48;5.60;;;3.05;;
84113;SDS011;74483;48.846;2.358;2024-03-07T15:25:24;5.72;;;2.78;;
84113;SDS011;74483;48.846;2.358;2024-03-07T15:27:51;4.53;;;2.90;;
84113;SDS011;74483;48.846;2.358;2024-03-07T15:30:18;4.57;;;3.08;;
84113;SDS011;74483;48.846;2.358;2024-03-07T15:32:45;6.53;;;3.50;;
84113;SDS011;74483;48.846;2.358;2024-03-07T15:35:12;4.63;;;3.10;;
84113;SDS011;74483;48.846;2.358;2024-03-07T15:37:44;3.83;;;3.08;;